sensor_id;sensor_type;location;lat;lon;timestamp;pressure;altitude;pressure_sealevel;temperature;humidity
26083;BME280;13848;49.018;12.078;2024-01-07T00:02:04;96877.09;;;3.65;93.43
26083;BME280;13848;49.018;12.078;2024-01-07T00:04:30;96871.72;;;3.59;93.01
26083;BME280;13848;49.018;12.078;2024-01-07T00:06:57;96870.50;;;3.61;93.67
26083;BME280;13848;49.018;12.078;2024-01-07T00:09:23;96873.41;;;3.66;93.52
26083;BME280;13848;49.018;12.078;2024-01-07T00:11:49;96884.47;;;3.70;93.06
26083;BME280;13848;49.018;12.078;2024-01-07T00:14:15;96879.31;;;3.62;93.94
26083;BME280;13848;49.018;12.078;2024-01-07T00:16:41;96879.09;;;3.57;94.01
26083;BME280;13848;49.018;12.078;2024-01-07T00:19:07;96878.22;;;3.43;94.35
26083;BME280;13848;49.018;12.078;2024-01-07T00:21:33;96875.78;;;3.48;94.49
26083;BME280;13848;49.018;12.078;2024-01-07T00:24:00;96873.72;;;3.50;93.44
26083;BME280;13848;49.018;12.078;2024-01-07T00:26:26;96876.59;;;3.49;94.03
26083;BME280;13848;49.018;12.078;2024-01-07T00:28:52;96877.44;;;3.56;93.49
26083;BME280;13848;49.018;12.078;2024-01-07T00:31:18;96886.47;;;3.55;93.57
26083;BME280;13848;49.018;12.078;2024-01-07T00:33:45;96874.81;;;3.62;93.36
26083;BME280;13848;49.018;12.078;2024-01-07T00:36:11;96878.28;;;3.63;93.79
26083;BME280;13848;49.018;12.078;2024-01-07T00:38:37;96875.25;;;3.66;92.71
26083;BME280;13848;49.018;12.078;2024-01-07T00:41:04;96872.50;;;3.53;92.58
26083;BME280;13848;49.018;12.078;2024-01-07T00:43:30;96876.22;;;3.58;93.41
26083;BME280;13848;49.018;12.078;2024-01-07T00:45:56;96882.19;;;3.60;92.22
26083;BME280;13848;49.018;12.078;2024-01-07T00:48:22;96878.72;;;3.60;93.03
26083;BME280;13848;49.018;12.078;2024-01-07T00:50:48;96877.03;;;3.59;92.16
26083;BME280;13848;49.018;12.078;2024-01-07T00:53:14;96881.19;;;3.68;92.56
26083;BME280;13848;49.018;12.078;2024-01-07T00:55:40;96884.47;;;3.70;92.05
26083;BME280;13848;49.018;12.078;2024-01-07T00:58:07;96880.53;;;3.59;92.33
26083;BME280;13848;49.018;12.078;2024-01-07T01:00:33;96886.28;;;3.63;91.82
26083;BME280;13848;49.018;12.078;2024-01-07T01:02:59;96890.78;;;3.56;93.34
26083;BME280;13848;49.018;12.078;2024-01-07T01:05:25;96886.81;;;3.45;92.63
26083;BME280;13848;49.018;12.078;2024-01-07T01:07:51;96893.78;;;3.46;93.00
26083;BME280;13848;49.018;12.078;2024-01-07T01:10:17;96891.81;;;3.55;93.05
26083;BME280;13848;49.018;12.078;2024-01-07T01:12:43;96903.66;;;3.52;94.21
26083;BME280;13848;49.018;12.078;2024-01-07T01:15:10;96895.00;;;3.43;94.71
26083;BME280;13848;49.018;12.078;2024-01-07T01:17:36;96893.03;;;3.59;93.75
26083;BME280;13848;49.018;12.078;2024-01-07T01:20:02;96898.25;;;3.39;93.73
26083;BME280;13848;49.018;12.078;2024-01-07T01:22:29;96899.38;;;3.58;94.58
26083;BME280;13848;49.018;12.078;2024-01-07T01:24:55;96905.31;;;3.53;93.62
26083;BME280;13848;49.018;12.078;2024-01-07T01:27:21;96901.81;;;3.53;93.69
26083;BME280;13848;49.018;12.078;2024-01-07T01:29:47;96907.34;;;3.51;94.10
26083;BME280;13848;49.018;12.078;2024-01-07T01:32:14;96906.25;;;3.39;95.00
26083;BME280;13848;49.018;12.078;2024-01-07T01:34:40;96911.78;;;3.37;95.67
26083;BME280;13848;49.018;12.078;2024-01-07T01:37:08;96906.72;;;3.49;95.43
26083;BME280;13848;49.018;12.078;2024-01-07T01:39:34;96906.28;;;3.45;94.84
26083;BME280;13848;49.018;12.078;2024-01-07T01:42:00;96903.00;;;3.43;96.11
26083;BME280;13848;49.018;12.078;2024-01-07T01:44:26;96911.53;;;3.32;96.11
26083;BME280;13848;49.018;12.078;2024-01-07T01:46:52;96905.00;;;3.07;97.16
26083;BME280;13848;49.018;12.078;2024-01-07T01:49:19;96905.97;;;3.27;96.61
26083;BME280;13848;49.018;12.078;2024-01-07T01:51:46;96903.94;;;3.29;96.01
26083;BME280;13848;49.018;12.078;2024-01-07T01:54:12;96901.91;;;3.31;96.45
26083;BME280;13848;49.018;12.078;2024-01-07T01:56:38;96900.47;;;3.35;96.03
26083;BME280;13848;49.018;12.078;2024-01-07T01:59:04;96901.25;;;3.29;96.39
26083;BME280;13848;49.018;12.078;2024-01-07T02:01:30;96896.19;;;3.34;96.53
26083;BME280;13848;49.018;12.078;2024-01-07T02:03:56;96899.34;;;3.16;96.53
26083;BME280;13848;49.018;12.078;2024-01-07T02:06:24;96908.06;;;3.32;96.19
26083;BME280;13848;49.018;12.078;2024-01-07T02:08:50;96911.31;;;3.27;95.90
26083;BME280;13848;49.018;12.078;2024-01-07T02:11:17;96904.75;;;3.30;96.37
26083;BME280;13848;49.018;12.078;2024-01-07T02:13:43;96907.84;;;3.33;95.64
26083;BME280;13848;49.018;12.078;2024-01-07T02:16:09;96906.34;;;3.24;96.70
26083;BME280;13848;49.018;12.078;2024-01-07T02:18:36;96910.47;;;3.27;95.61
26083;BME280;13848;49.018;12.078;2024-01-07T02:21:03;96912.69;;;3.23;96.14
26083;BME280;13848;49.018;12.078;2024-01-07T02:23:31;96909.94;;;3.10;96.83
26083;BME280;13848;49.018;12.078;2024-01-07T02:25:58;96912.00;;;3.08;97.23
26083;BME280;13848;49.018;12.078;2024-01-07T02:28:24;96913.75;;;3.01;97.03
26083;BME280;13848;49.018;12.078;2024-01-07T02:30:50;96908.69;;;3.06;97.66
26083;BME280;13848;49.018;12.078;2024-01-07T02:33:16;96915.31;;;3.16;97.04
26083;BME280;13848;49.018;12.078;2024-01-07T02:35:42;96912.84;;;3.15;96.88
26083;BME280;13848;49.018;12.078;2024-01-07T02:38:08;96912.47;;;3.18;96.71
26083;BME280;13848;49.018;12.078;2024-01-07T02:40:34;96917.94;;;3.10;97.36
26083;BME280;13848;49.018;12.078;2024-01-07T02:43:01;96918.19;;;3.15;96.83
26083;BME280;13848;49.018;12.078;2024-01-07T02:45:27;96913.63;;;3.09;97.53
26083;BME280;13848;49.018;12.078;2024-01-07T02:47:53;96917.16;;;3.16;96.89
26083;BME280;13848;49.018;12.078;2024-01-07T02:50:19;96922.69;;;3.14;96.29
26083;BME280;13848;49.018;12.078;2024-01-07T02:52:44;96915.81;;;2.99;97.08
26083;BME280;13848;49.018;12.078;2024-01-07T02:55:10;96918.09;;;3.02;97.67
26083;BME280;13848;49.018;12.078;2024-01-07T02:57:36;96914.78;;;3.00;96.86
26083;BME280;13848;49.018;12.078;2024-01-07T03:00:05;96920.94;;;3.00;97.55
26083;BME280;13848;49.018;12.078;2024-01-07T03:02:31;96919.09;;;3.01;97.57
26083;BME280;13848;49.018;12.078;2024-01-07T03:04:57;96916.56;;;2.92;97.44
26083;BME280;13848;49.018;12.078;2024-01-07T03:07:23;96919.03;;;2.94;98.00
26083;BME280;13848;49.018;12.078;2024-01-07T03:09:49;96910.84;;;2.96;97.47
26083;BME280;13848;49.018;12.078;2024-01-07T03:12:15;96920.34;;;3.05;97.97
26083;BME280;13848;49.018;12.078;2024-01-07T03:14:41;96920.75;;;3.02;97.57
26083;BME280;13848;49.018;12.078;2024-01-07T03:17:09;96924.28;;;3.09;97.10
26083;BME280;13848;49.018;12.078;2024-01-07T03:19:35;96918.66;;;2.97;97.64
26083;BME280;13848;49.018;12.078;2024-01-07T03:22:01;96923.53;;;2.93;98.51
26083;BME280;13848;49.018;12.078;2024-01-07T03:24:26;96927.03;;;2.94;98.54
26083;BME280;13848;49.018;12.078;2024-01-07T03:26:52;96929.25;;;2.90;98.04
26083;BME280;13848;49.018;12.078;2024-01-07T03:29:18;96936.09;;;3.00;98.26
26083;BME280;13848;49.018;12.078;2024-01-07T03:31:44;96936.13;;;3.06;98.15
26083;BME280;13848;49.018;12.078;2024-01-07T03:34:11;96935.31;;;3.06;97.88
26083;BME280;13848;49.018;12.078;2024-01-07T03:36:37;96932.81;;;2.98;98.01
26083;BME280;13848;49.018;12.078;2024-01-07T03:39:03;96938.06;;;2.91;98.58
26083;BME280;13848;49.018;12.078;2024-01-07T03:41:29;96937.63;;;2.87;98.63
26083;BME280;13848;49.018;12.078;2024-01-07T03:43:55;96938.03;;;2.84;98.17
26083;BME280;13848;49.018;12.078;2024-01-07T03:46:21;96938.91;;;2.70;98.25
26083;BME280;13848;49.018;12.078;2024-01-07T03:48:47;96946.13;;;2.76;98.41
26083;BME280;13848;49.018;12.078;2024-01-07T03:51:14;96945.09;;;2.77;98.34
26083;BME280;13848;49.018;12.078;2024-01-07T03:53:40;96950.25;;;2.79;98.57
26083;BME280;13848;49.018;12.078;2024-01-07T03:56:06;96948.59;;;2.78;98.16
26083;BME280;13848;49.018;12.078;2024-01-07T03:58:32;96958.03;;;2.80;98.50
26083;BME280;13848;49.018;12.078;2024-01-07T04:00:58;96955.88;;;2.69;99.25
26083;BME280;13848;49.018;12.078;2024-01-07T04:03:24;96955.44;;;2.65;98.92
26083;BME280;13848;49.018;12.078;2024-01-07T04:05:50;96958.03;;;2.80;98.23
26083;BME280;13848;49.018;12.078;2024-01-07T04:08:17;96952.22;;;2.70;98.14
26083;BME280;13848;49.018;12.078;2024-01-07T04:10:43;96961.56;;;2.66;97.54
26083;BME280;13848;49.018;12.078;2024-01-07T04:13:09;96959.66;;;2.60;97.80
26083;BME280;13848;49.018;12.078;2024-01-07T04:15:35;96977.88;;;2.56;98.29
26083;BME280;13848;49.018;12.078;2024-01-07T04:18:01;96968.81;;;2.51;97.80
26083;BME280;13848;49.018;12.078;2024-01-07T04:20:27;96972.56;;;2.56;96.93
26083;BME280;13848;49.018;12.078;2024-01-07T04:22:53;96972.03;;;2.46;97.61
26083;BME280;13848;49.018;12.078;2024-01-07T04:25:20;96976.13;;;2.49;97.30
26083;BME280;13848;49.018;12.078;2024-01-07T04:27:46;96969.03;;;2.34;98.29
26083;BME280;13848;49.018;12.078;2024-01-07T04:30:12;96977.00;;;2.34;96.42
26083;BME280;13848;49.018;12.078;2024-01-07T04:32:38;96980.03;;;2.31;96.35
26083;BME280;13848;49.018;12.078;2024-01-07T04:35:04;96985.34;;;2.31;96.53
26083;BME280;13848;49.018;12.078;2024-01-07T04:37:30;96977.22;;;2.33;96.21
26083;BME280;13848;49.018;12.078;2024-01-07T04:39:56;96989.03;;;2.30;96.54
26083;BME280;13848;49.018;12.078;2024-01-07T04:42:23;96990.03;;;2.29;96.57
26083;BME280;13848;49.018;12.078;2024-01-07T04:44:49;96987.38;;;2.29;96.70
26083;BME280;13848;49.018;12.078;2024-01-07T04:47:26;96994.06;;;2.25;96.57
26083;BME280;13848;49.018;12.078;2024-01-07T04:49:52;96992.06;;;2.27;96.57
26083;BME280;13848;49.018;12.078;2024-01-07T04:52:18;96992.44;;;2.24;96.69
26083;BME280;13848;49.018;12.078;2024-01-07T04:54:44;97004.34;;;2.28;96.17
26083;BME280;13848;49.018;12.078;2024-01-07T04:57:10;97001.16;;;2.18;96.53
26083;BME280;13848;49.018;12.078;2024-01-07T04:59:37;97009.25;;;2.10;96.64
26083;BME280;13848;49.018;12.078;2024-01-07T05:02:03;97003.28;;;2.08;97.42
26083;BME280;13848;49.018;12.078;2024-01-07T05:04:29;97011.31;;;2.29;96.81
26083;BME280;13848;49.018;12.078;2024-01-07T05:06:55;97005.38;;;2.27;96.45
26083;BME280;13848;49.018;12.078;2024-01-07T05:09:21;97013.16;;;2.29;96.29
26083;BME280;13848;49.018;12.078;2024-01-07T05:11:47;97010.31;;;2.30;96.23
26083;BME280;13848;49.018;12.078;2024-01-07T05:14:13;97019.22;;;2.23;96.43
26083;BME280;13848;49.018;12.078;2024-01-07T05:16:40;97020.50;;;2.12;96.34
26083;BME280;13848;49.018;12.078;2024-01-07T05:19:06;97019.97;;;2.17;95.95
26083;BME280;13848;49.018;12.078;2024-01-07T05:21:32;97030.41;;;2.18;95.34
26083;BME280;13848;49.018;12.078;2024-01-07T05:23:58;97022.81;;;2.15;95.48
26083;BME280;13848;49.018;12.078;2024-01-07T05:26:24;97024.81;;;2.13;95.46
26083;BME280;13848;49.018;12.078;2024-01-07T05:28:50;97022.97;;;2.13;95.52
26083;BME280;13848;49.018;12.078;2024-01-07T05:31:16;97030.59;;;2.17;94.84
26083;BME280;13848;49.018;12.078;2024-01-07T05:33:44;97035.91;;;2.17;95.47
26083;BME280;13848;49.018;12.078;2024-01-07T05:36:10;97034.63;;;2.12;95.46
26083;BME280;13848;49.018;12.078;2024-01-07T05:38:36;97039.13;;;2.12;95.34
26083;BME280;13848;49.018;12.078;2024-01-07T05:41:02;97031.41;;;2.17;95.08
26083;BME280;13848;49.018;12.078;2024-01-07T05:43:27;97034.91;;;2.18;95.28
26083;BME280;13848;49.018;12.078;2024-01-07T05:45:53;97045.19;;;2.06;95.15
26083;BME280;13848;49.018;12.078;2024-01-07T05:48:21;97043.34;;;2.06;95.45
26083;BME280;13848;49.018;12.078;2024-01-07T05:50:49;97046.09;;;2.13;95.00
26083;BME280;13848;49.018;12.078;2024-01-07T05:53:16;97049.59;;;1.99;95.08
26083;BME280;13848;49.018;12.078;2024-01-07T05:55:42;97046.53;;;2.02;94.84
26083;BME280;13848;49.018;12.078;2024-01-07T05:58:08;97046.53;;;2.02;94.47
26083;BME280;13848;49.018;12.078;2024-01-07T06:00:34;97044.91;;;2.16;94.86
26083;BME280;13848;49.018;12.078;2024-01-07T06:03:00;97051.41;;;2.13;95.08
26083;BME280;13848;49.018;12.078;2024-01-07T06:05:26;97048.47;;;2.23;94.79
26083;BME280;13848;49.018;12.078;2024-01-07T06:07:54;97052.97;;;2.22;94.41
26083;BME280;13848;49.018;12.078;2024-01-07T06:10:19;97054.72;;;2.15;94.03
26083;BME280;13848;49.018;12.078;2024-01-07T06:12:45;97055.09;;;2.12;93.76
26083;BME280;13848;49.018;12.078;2024-01-07T06:15:11;97061.31;;;2.04;94.15
26083;BME280;13848;49.018;12.078;2024-01-07T06:17:37;97056.09;;;2.11;94.23
26083;BME280;13848;49.018;12.078;2024-01-07T06:20:04;97054.06;;;2.13;93.83
26083;BME280;13848;49.018;12.078;2024-01-07T06:22:30;97057.63;;;2.20;93.45
26083;BME280;13848;49.018;12.078;2024-01-07T06:24:57;97056.91;;;2.26;93.17
26083;BME280;13848;49.018;12.078;2024-01-07T06:27:23;97060.56;;;2.25;93.41
26083;BME280;13848;49.018;12.078;2024-01-07T06:29:49;97065.81;;;2.19;93.71
26083;BME280;13848;49.018;12.078;2024-01-07T06:32:15;97075.19;;;2.15;93.66
26083;BME280;13848;49.018;12.078;2024-01-07T06:34:41;97070.38;;;2.25;93.61
26083;BME280;13848;49.018;12.078;2024-01-07T06:37:07;97066.69;;;2.40;92.86
26083;BME280;13848;49.018;12.078;2024-01-07T06:39:33;97070.09;;;2.34;92.42
26083;BME280;13848;49.018;12.078;2024-01-07T06:42:00;97071.31;;;2.17;93.03
26083;BME280;13848;49.018;12.078;2024-01-07T06:44:26;97073.59;;;2.20;92.92
26083;BME280;13848;49.018;12.078;2024-01-07T06:46:52;97073.22;;;2.23;92.89
26083;BME280;13848;49.018;12.078;2024-01-07T06:49:18;97074.69;;;2.26;93.66
26083;BME280;13848;49.018;12.078;2024-01-07T06:51:46;97076.78;;;2.30;93.26
26083;BME280;13848;49.018;12.078;2024-01-07T06:54:12;97078.19;;;2.26;92.90
26083;BME280;13848;49.018;12.078;2024-01-07T06:56:38;97080.59;;;2.21;93.07
26083;BME280;13848;49.018;12.078;2024-01-07T06:59:05;97084.69;;;2.24;92.99
26083;BME280;13848;49.018;12.078;2024-01-07T07:01:31;97089.53;;;2.20;92.70
26083;BME280;13848;49.018;12.078;2024-01-07T07:03:57;97085.91;;;2.21;92.79
26083;BME280;13848;49.018;12.078;2024-01-07T07:06:23;97085.97;;;2.13;93.20
26083;BME280;13848;49.018;12.078;2024-01-07T07:08:49;97086.25;;;2.18;93.10
26083;BME280;13848;49.018;12.078;2024-01-07T07:11:15;97089.00;;;2.10;92.78
26083;BME280;13848;49.018;12.078;2024-01-07T07:13:41;97089.00;;;2.10;92.13
26083;BME280;13848;49.018;12.078;2024-01-07T07:16:09;97094.50;;;2.23;91.85
26083;BME280;13848;49.018;12.078;2024-01-07T07:18:35;97097.28;;;2.15;91.63
26083;BME280;13848;49.018;12.078;2024-01-07T07:21:01;97094.34;;;2.10;91.46
26083;BME280;13848;49.018;12.078;2024-01-07T07:23:26;97090.91;;;2.01;91.53
26083;BME280;13848;49.018;12.078;2024-01-07T07:25:53;97098.34;;;2.06;91.81
26083;BME280;13848;49.018;12.078;2024-01-07T07:28:19;97102.75;;;2.13;91.46
26083;BME280;13848;49.018;12.078;2024-01-07T07:30:44;97116.53;;;2.17;90.48
26083;BME280;13848;49.018;12.078;2024-01-07T07:33:12;97109.91;;;2.13;90.58
26083;BME280;13848;49.018;12.078;2024-01-07T07:35:38;97119.91;;;2.11;90.71
26083;BME280;13848;49.018;12.078;2024-01-07T07:38:04;97121.66;;;2.04;91.67
26083;BME280;13848;49.018;12.078;2024-01-07T07:40:30;97122.91;;;2.08;91.06
26083;BME280;13848;49.018;12.078;2024-01-07T07:42:56;97114.59;;;2.11;90.61
26083;BME280;13848;49.018;12.078;2024-01-07T07:45:22;97118.06;;;2.11;90.15
26083;BME280;13848;49.018;12.078;2024-01-07T07:47:47;97130.25;;;2.06;89.94
26083;BME280;13848;49.018;12.078;2024-01-07T07:50:15;97130.09;;;2.22;90.38
26083;BME280;13848;49.018;12.078;2024-01-07T07:52:41;97149.34;;;2.09;90.52
26083;BME280;13848;49.018;12.078;2024-01-07T07:55:08;97146.06;;;2.22;89.35
26083;BME280;13848;49.018;12.078;2024-01-07T07:57:34;97140.00;;;2.28;89.27
26083;BME280;13848;49.018;12.078;2024-01-07T07:59:59;97141.66;;;2.29;88.41
26083;BME280;13848;49.018;12.078;2024-01-07T08:02:25;97160.38;;;2.21;89.45
26083;BME280;13848;49.018;12.078;2024-01-07T08:04:51;97151.94;;;2.32;89.21
26083;BME280;13848;49.018;12.078;2024-01-07T08:07:19;97167.41;;;2.29;88.52
26083;BME280;13848;49.018;12.078;2024-01-07T08:09:45;97167.97;;;2.24;89.69
26083;BME280;13848;49.018;12.078;2024-01-07T08:12:10;97171.97;;;2.20;89.14
26083;BME280;13848;49.018;12.078;2024-01-07T08:14:36;97172.81;;;2.06;88.80
26083;BME280;13848;49.018;12.078;2024-01-07T08:17:03;97185.09;;;2.07;88.95
26083;BME280;13848;49.018;12.078;2024-01-07T08:19:29;97184.59;;;1.89;89.21
26083;BME280;13848;49.018;12.078;2024-01-07T08:21:55;97188.88;;;1.90;89.23
26083;BME280;13848;49.018;12.078;2024-01-07T08:24:22;97193.50;;;1.96;88.70
26083;BME280;13848;49.018;12.078;2024-01-07T08:26:48;97191.22;;;1.93;89.00
26083;BME280;13848;49.018;12.078;2024-01-07T08:29:14;97192.91;;;1.85;88.85
26083;BME280;13848;49.018;12.078;2024-01-07T08:31:40;97195.22;;;1.89;89.03
26083;BME280;13848;49.018;12.078;2024-01-07T08:34:06;97194.59;;;1.86;88.69
26083;BME280;13848;49.018;12.078;2024-01-07T08:36:32;97200.47;;;1.74;88.97
26083;BME280;13848;49.018;12.078;2024-01-07T08:38:58;97207.06;;;1.63;88.62
26083;BME280;13848;49.018;12.078;2024-01-07T08:41:25;97206.75;;;1.58;88.38
26083;BME280;13848;49.018;12.078;2024-01-07T08:43:51;97211.59;;;1.54;88.11
26083;BME280;13848;49.018;12.078;2024-01-07T08:46:17;97210.34;;;1.65;88.43
26083;BME280;13848;49.018;12.078;2024-01-07T08:48:45;97213.66;;;1.67;88.33
26083;BME280;13848;49.018;12.078;2024-01-07T08:51:11;97216.19;;;1.60;88.68
26083;BME280;13848;49.018;12.078;2024-01-07T08:53:37;97217.91;;;1.53;88.76
26083;BME280;13848;49.018;12.078;2024-01-07T08:56:03;97215.47;;;1.44;88.25
26083;BME280;13848;49.018;12.078;2024-01-07T08:58:31;97222.31;;;1.61;89.07
26083;BME280;13848;49.018;12.078;2024-01-07T09:00:57;97219.78;;;1.68;88.98
26083;BME280;13848;49.018;12.078;2024-01-07T09:03:23;97234.34;;;1.57;88.36
26083;BME280;13848;49.018;12.078;2024-01-07T09:05:49;97230.00;;;1.56;88.92
26083;BME280;13848;49.018;12.078;2024-01-07T09:08:14;97237.44;;;1.60;89.12
26083;BME280;13848;49.018;12.078;2024-01-07T09:10:40;97251.84;;;1.66;89.03
26083;BME280;13848;49.018;12.078;2024-01-07T09:13:06;97247.06;;;1.62;88.88
26083;BME280;13848;49.018;12.078;2024-01-07T09:15:34;97251.84;;;1.66;88.69
26083;BME280;13848;49.018;12.078;2024-01-07T09:18:00;97251.84;;;1.66;88.74
26083;BME280;13848;49.018;12.078;2024-01-07T09:20:25;97264.34;;;1.35;89.15
26083;BME280;13848;49.018;12.078;2024-01-07T09:22:51;97261.31;;;1.46;89.04
26083;BME280;13848;49.018;12.078;2024-01-07T09:25:17;97268.56;;;1.52;89.09
26083;BME280;13848;49.018;12.078;2024-01-07T09:27:43;97271.22;;;1.52;89.46
26083;BME280;13848;49.018;12.078;2024-01-07T09:30:10;97270.84;;;1.55;88.57
26083;BME280;13848;49.018;12.078;2024-01-07T09:32:38;97264.59;;;1.48;88.03
26083;BME280;13848;49.018;12.078;2024-01-07T09:35:04;97270.13;;;1.38;88.83
26083;BME280;13848;49.018;12.078;2024-01-07T09:37:30;97274.41;;;1.39;88.30
26083;BME280;13848;49.018;12.078;2024-01-07T09:39:56;97275.63;;;1.37;88.16
26083;BME280;13848;49.018;12.078;2024-01-07T09:42:22;97278.84;;;1.24;87.51
26083;BME280;13848;49.018;12.078;2024-01-07T09:44:50;97268.91;;;1.18;88.25
26083;BME280;13848;49.018;12.078;2024-01-07T09:47:16;97277.66;;;1.26;88.33
26083;BME280;13848;49.018;12.078;2024-01-07T09:49:44;97274.03;;;1.19;87.92
26083;BME280;13848;49.018;12.078;2024-01-07T09:52:11;97277.38;;;1.13;88.33
26083;BME280;13848;49.018;12.078;2024-01-07T09:54:37;97273.38;;;1.17;88.40
26083;BME280;13848;49.018;12.078;2024-01-07T09:57:05;97277.50;;;1.20;88.22
26083;BME280;13848;49.018;12.078;2024-01-07T09:59:31;97276.34;;;1.22;88.21
26083;BME280;13848;49.018;12.078;2024-01-07T10:01:57;97276.75;;;1.03;88.38
26083;BME280;13848;49.018;12.078;2024-01-07T10:04:24;97284.19;;;1.08;88.76
26083;BME280;13848;49.018;12.078;2024-01-07T10:06:51;97285.16;;;1.15;88.42
26083;BME280;13848;49.018;12.078;2024-01-07T10:09:18;97287.69;;;1.08;88.47
26083;BME280;13848;49.018;12.078;2024-01-07T10:11:44;97296.00;;;0.97;88.47
26083;BME280;13848;49.018;12.078;2024-01-07T10:14:10;97288.03;;;1.05;89.13
26083;BME280;13848;49.018;12.078;2024-01-07T10:16:36;97280.78;;;0.99;87.79
26083;BME280;13848;49.018;12.078;2024-01-07T10:19:02;97294.66;;;1.09;87.70
26083;BME280;13848;49.018;12.078;2024-01-07T10:21:28;97296.59;;;1.23;88.02
26083;BME280;13848;49.018;12.078;2024-01-07T10:24:07;97296.09;;;1.28;87.84
26083;BME280;13848;49.018;12.078;2024-01-07T10:26:33;97301.91;;;1.15;87.36
26083;BME280;13848;49.018;12.078;2024-01-07T10:28:59;97293.31;;;1.13;87.54
26083;BME280;13848;49.018;12.078;2024-01-07T10:31:25;97300.50;;;1.04;87.81
26083;BME280;13848;49.018;12.078;2024-01-07T10:33:52;97303.06;;;1.21;87.13
26083;BME280;13848;49.018;12.078;2024-01-07T10:36:18;97303.75;;;1.23;86.53
26083;BME280;13848;49.018;12.078;2024-01-07T10:38:46;97305.81;;;1.04;86.81
26083;BME280;13848;49.018;12.078;2024-01-07T10:41:14;97314.59;;;0.97;86.25
26083;BME280;13848;49.018;12.078;2024-01-07T10:43:46;97316.25;;;0.98;86.76
26083;BME280;13848;49.018;12.078;2024-01-07T10:46:13;97316.25;;;0.98;86.34
26083;BME280;13848;49.018;12.078;2024-01-07T10:48:49;97314.88;;;1.10;86.41
26083;BME280;13848;49.018;12.078;2024-01-07T10:51:17;97307.16;;;1.31;86.23
26083;BME280;13848;49.018;12.078;2024-01-07T10:53:51;97314.88;;;1.10;85.72
26083;BME280;13848;49.018;12.078;2024-01-07T10:56:19;97316.94;;;0.92;86.55
26083;BME280;13848;49.018;12.078;2024-01-07T10:58:48;97309.66;;;0.94;87.19
26083;BME280;13848;49.018;12.078;2024-01-07T11:01:14;97319.56;;;1.00;87.81
26083;BME280;13848;49.018;12.078;2024-01-07T11:03:45;97320.72;;;0.97;86.44
26083;BME280;13848;49.018;12.078;2024-01-07T11:06:20;97319.91;;;1.05;86.49
26083;BME280;13848;49.018;12.078;2024-01-07T11:08:55;97322.19;;;1.08;87.00
26083;BME280;13848;49.018;12.078;2024-01-07T11:11:26;97322.69;;;1.03;87.07
26083;BME280;13848;49.018;12.078;2024-01-07T11:13:53;97320.25;;;0.94;87.19
26083;BME280;13848;49.018;12.078;2024-01-07T11:16:41;97318.44;;;0.86;87.91
26083;BME280;13848;49.018;12.078;2024-01-07T11:19:07;97331.69;;;0.86;87.82
26083;BME280;13848;49.018;12.078;2024-01-07T11:21:33;97327.59;;;0.75;88.19
26083;BME280;13848;49.018;12.078;2024-01-07T11:23:59;97330.59;;;0.64;87.98
26083;BME280;13848;49.018;12.078;2024-01-07T11:26:28;97337.88;;;0.62;88.94
26083;BME280;13848;49.018;12.078;2024-01-07T11:28:55;97341.53;;;0.61;89.02
26083;BME280;13848;49.018;12.078;2024-01-07T11:34:08;97333.91;;;0.66;88.22
26083;BME280;13848;49.018;12.078;2024-01-07T11:36:35;97333.56;;;0.69;88.69
26083;BME280;13848;49.018;12.078;2024-01-07T11:39:02;97339.22;;;0.50;89.42
26083;BME280;13848;49.018;12.078;2024-01-07T11:41:32;97329.56;;;0.90;88.12
26083;BME280;13848;49.018;12.078;2024-01-07T11:43:59;97334.22;;;0.79;87.42
26083;BME280;13848;49.018;12.078;2024-01-07T11:46:26;97344.03;;;0.71;87.95
26083;BME280;13848;49.018;12.078;2024-01-07T11:48:54;97345.00;;;0.62;89.14
26083;BME280;13848;49.018;12.078;2024-01-07T11:51:20;97344.16;;;0.69;89.00
26083;BME280;13848;49.018;12.078;2024-01-07T11:53:46;97349.97;;;0.89;89.68
26083;BME280;13848;49.018;12.078;2024-01-07T11:56:12;97346.09;;;1.86;92.00
26083;BME280;13848;49.018;12.078;2024-01-07T11:58:40;97343.78;;;2.29;84.07
26083;BME280;13848;49.018;12.078;2024-01-07T12:01:06;97348.09;;;1.06;87.50
26083;BME280;13848;49.018;12.078;2024-01-07T12:03:32;97349.78;;;0.99;89.00
26083;BME280;13848;49.018;12.078;2024-01-07T12:05:58;97356.06;;;1.06;88.49
26083;BME280;13848;49.018;12.078;2024-01-07T12:08:24;97353.22;;;1.08;88.37
26083;BME280;13848;49.018;12.078;2024-01-07T12:10:50;97361.72;;;0.87;88.63
26083;BME280;13848;49.018;12.078;2024-01-07T12:13:17;97360.41;;;0.74;88.91
26083;BME280;13848;49.018;12.078;2024-01-07T12:15:45;97353.44;;;0.90;88.86
26083;BME280;13848;49.018;12.078;2024-01-07T12:18:11;97361.09;;;0.60;90.33
26083;BME280;13848;49.018;12.078;2024-01-07T12:20:37;97360.28;;;0.60;89.71
26083;BME280;13848;49.018;12.078;2024-01-07T12:23:06;97370.38;;;0.56;89.59
26083;BME280;13848;49.018;12.078;2024-01-07T12:25:32;97366.09;;;0.47;90.33
26083;BME280;13848;49.018;12.078;2024-01-07T12:27:58;97367.06;;;0.70;90.53
26083;BME280;13848;49.018;12.078;2024-01-07T12:30:24;97367.75;;;0.32;91.18
26083;BME280;13848;49.018;12.078;2024-01-07T12:32:52;97359.09;;;0.46;90.45
26083;BME280;13848;49.018;12.078;2024-01-07T12:35:18;97367.25;;;0.61;89.70
26083;BME280;13848;49.018;12.078;2024-01-07T12:37:44;97369.41;;;0.65;89.35
26083;BME280;13848;49.018;12.078;2024-01-07T12:40:11;97381.50;;;0.60;89.13
26083;BME280;13848;49.018;12.078;2024-01-07T12:42:37;97375.38;;;0.43;90.43
26083;BME280;13848;49.018;12.078;2024-01-07T12:45:04;97382.00;;;0.47;90.08
26083;BME280;13848;49.018;12.078;2024-01-07T12:47:30;97385.31;;;0.49;89.78
26083;BME280;13848;49.018;12.078;2024-01-07T12:49:57;97390.25;;;0.28;91.01
26083;BME280;13848;49.018;12.078;2024-01-07T12:52:23;97388.63;;;0.43;90.01
26083;BME280;13848;49.018;12.078;2024-01-07T12:54:49;97400.22;;;0.74;89.36
26083;BME280;13848;49.018;12.078;2024-01-07T12:57:15;97395.25;;;0.88;88.78
26083;BME280;13848;49.018;12.078;2024-01-07T12:59:41;97392.94;;;0.60;88.78